createdAt,value
2022-10-07T00:01:27.687Z,7.80
2022-10-07T00:03:58.214Z,8.40
2022-10-07T00:06:28.538Z,9.00
2022-10-07T00:08:56.667Z,8.70
2022-10-07T00:11:28.536Z,8.50
2022-10-07T00:14:00.672Z,8.50
2022-10-07T00:16:33.163Z,8.60
2022-10-07T00:19:07.688Z,8.50
2022-10-07T00:21:39.123Z,8.30
2022-10-07T00:24:11.281Z,7.80
2022-10-07T00:26:39.403Z,8.60
2022-10-07T00:29:09.797Z,8.50
2022-10-07T00:31:39.693Z,8.20
2022-10-07T00:34:10.968Z,8.40
2022-10-07T00:36:40.508Z,9.40
2022-10-07T00:39:13.656Z,8.70
2022-10-07T00:41:46.768Z,8.70
2022-10-07T00:44:32.831Z,8.30
2022-10-07T00:47:25.758Z,9.20
2022-10-07T00:50:13.776Z,8.70
2022-10-07T00:52:53.031Z,9.10
2022-10-07T00:55:26.193Z,9.00
2022-10-07T00:57:59.209Z,8.80
2022-10-07T01:00:28.582Z,9.50
2022-10-07T01:02:56.252Z,9.20
2022-10-07T01:05:24.167Z,9.30
2022-10-07T01:07:58.268Z,8.60
2022-10-07T01:10:49.843Z,8.30
2022-10-07T01:13:50.560Z,8.60
2022-10-07T01:16:33.057Z,9.50
2022-10-07T01:19:21.274Z,10.10
2022-10-07T01:22:03.227Z,8.90
2022-10-07T01:24:42.984Z,9.10
2022-10-07T01:27:19.355Z,9.40
2022-10-07T01:30:03.332Z,8.80
2022-10-07T01:32:53.298Z,8.40
2022-10-07T01:35:34.060Z,9.70
2022-10-07T01:38:11.118Z,9.20
2022-10-07T01:40:48.403Z,10.20
2022-10-07T01:43:19.974Z,8.40
2022-10-07T01:45:51.638Z,8.40
2022-10-07T01:48:19.379Z,8.50
2022-10-07T01:50:50.796Z,7.70
2022-10-07T01:53:25.036Z,8.40
2022-10-07T01:56:17.816Z,8.00
2022-10-07T01:59:14.158Z,8.50
2022-10-07T02:02:07.010Z,9.10
2022-10-07T02:05:06.973Z,8.30
2022-10-07T02:08:05.681Z,8.70
2022-10-07T02:11:02.939Z,8.20
2022-10-07T02:14:02.446Z,9.30
2022-10-07T02:16:36.486Z,8.50
2022-10-07T02:19:16.781Z,8.80
2022-10-07T02:21:49.482Z,8.20
2022-10-07T02:24:24.529Z,7.80
2022-10-07T02:26:55.867Z,10.10
2022-10-07T02:29:32.255Z,8.60
2022-10-07T02:32:06.820Z,8.50
2022-10-07T02:34:37.634Z,8.70
2022-10-07T02:37:19.700Z,8.70
2022-10-07T02:39:47.701Z,8.70
2022-10-07T02:42:46.459Z,7.70
2022-10-07T02:45:36.504Z,7.60
2022-10-07T02:48:27.860Z,7.60
2022-10-07T02:51:03.035Z,9.00
2022-10-07T02:53:36.299Z,8.90
2022-10-07T02:56:06.641Z,9.60
2022-10-07T02:58:37.843Z,8.90
2022-10-07T03:01:09.121Z,10.30
2022-10-07T03:03:37.135Z,9.30
2022-10-07T03:06:06.223Z,9.00
2022-10-07T03:08:37.211Z,9.20
2022-10-07T03:11:05.115Z,9.00
2022-10-07T03:13:36.731Z,9.20
2022-10-07T03:16:05.671Z,10.10
2022-10-07T03:18:35.758Z,8.40
2022-10-07T03:21:05.166Z,9.10
2022-10-07T03:23:36.078Z,8.60
2022-10-07T03:26:04.424Z,8.50
2022-10-07T03:28:37.483Z,8.50
2022-10-07T03:31:08.935Z,9.00
2022-10-07T03:33:39.012Z,8.80
2022-10-07T03:36:08.838Z,8.40
2022-10-07T03:38:38.468Z,8.10
2022-10-07T03:41:08.062Z,8.60
2022-10-07T03:43:39.386Z,8.00
2022-10-07T03:46:07.562Z,8.20
2022-10-07T03:48:35.654Z,8.30
2022-10-07T03:51:04.524Z,8.40
2022-10-07T03:53:32.227Z,8.00
2022-10-07T03:56:01.736Z,7.20
2022-10-07T03:58:29.518Z,7.50
2022-10-07T04:01:24.689Z,7.60
2022-10-07T04:03:55.885Z,8.20
2022-10-07T04:06:23.584Z,7.40
2022-10-07T04:08:55.229Z,8.70
2022-10-07T04:11:24.462Z,8.70
2022-10-07T04:13:53.627Z,8.60
2022-10-07T04:16:24.554Z,9.60
2022-10-07T04:18:56.162Z,9.20
2022-10-07T04:21:24.779Z,8.80
2022-10-07T04:23:52.734Z,8.00
2022-10-07T04:26:57.131Z,8.90
2022-10-07T04:29:25.438Z,8.60
2022-10-07T04:31:53.161Z,8.20
2022-10-07T04:34:21.454Z,8.60
2022-10-07T04:36:49.389Z,8.10
2022-10-07T04:39:17.294Z,8.30
2022-10-07T04:41:45.167Z,9.50
2022-10-07T04:44:13.439Z,9.80
2022-10-07T04:46:41.449Z,10.20
2022-10-07T04:49:10.870Z,9.50
2022-10-07T04:51:38.746Z,8.80
2022-10-07T04:54:09.748Z,9.60
2022-10-07T04:56:37.718Z,9.30
2022-10-07T04:59:06.097Z,10.00
2022-10-07T05:01:34.060Z,10.30
2022-10-07T05:04:03.398Z,10.70
2022-10-07T05:06:31.124Z,10.10
2022-10-07T05:09:01.870Z,8.50
2022-10-07T05:11:31.168Z,8.10
2022-10-07T05:14:03.278Z,9.20
2022-10-07T05:16:31.298Z,8.50
2022-10-07T05:19:01.708Z,9.10
2022-10-07T05:21:31.014Z,8.90
2022-10-07T05:24:00.120Z,9.10
2022-10-07T05:26:30.803Z,11.20
2022-10-07T05:28:58.983Z,12.10
2022-10-07T05:31:28.072Z,12.40
2022-10-07T05:33:59.466Z,11.70
2022-10-07T05:36:30.098Z,10.80
2022-10-07T05:38:59.337Z,11.20
2022-10-07T05:41:29.923Z,12.00
2022-10-07T05:43:58.035Z,11.80
2022-10-07T05:46:30.161Z,11.60
2022-10-07T05:49:00.997Z,11.30
2022-10-07T05:51:28.660Z,10.10
2022-10-07T05:53:59.727Z,11.40
2022-10-07T05:56:27.470Z,10.70
2022-10-07T05:58:57.196Z,11.90
2022-10-07T06:01:28.478Z,12.50
2022-10-07T06:04:00.176Z,12.10
2022-10-07T06:06:31.140Z,12.80
2022-10-07T06:09:18.794Z,12.90
2022-10-07T06:12:08.472Z,13.20
2022-10-07T06:14:37.566Z,13.60
2022-10-07T06:17:08.282Z,13.50
2022-10-07T06:19:39.848Z,14.10
2022-10-07T06:22:07.549Z,13.60
2022-10-07T06:24:38.198Z,14.70
2022-10-07T06:27:08.929Z,14.00
2022-10-07T06:29:36.615Z,16.00
2022-10-07T06:32:08.245Z,15.10
2022-10-07T06:34:37.138Z,15.60
2022-10-07T06:37:04.803Z,16.80
2022-10-07T06:39:32.693Z,16.30
2022-10-07T06:42:00.558Z,15.90
2022-10-07T06:44:31.623Z,17.00
2022-10-07T06:46:59.434Z,18.50
2022-10-07T06:49:27.350Z,19.20
2022-10-07T06:51:55.008Z,19.80
2022-10-07T06:54:22.905Z,20.80
2022-10-07T06:56:52.235Z,20.20
2022-10-07T06:59:20.090Z,22.10
2022-10-07T07:01:48.075Z,24.10
2022-10-07T07:04:15.856Z,23.40
2022-10-07T07:06:43.709Z,24.70
2022-10-07T07:09:12.136Z,26.20
2022-10-07T07:11:45.199Z,27.60
2022-10-07T07:14:16.614Z,26.20
2022-10-07T07:16:47.112Z,24.50
2022-10-07T07:19:16.385Z,23.60
2022-10-07T07:21:49.078Z,23.20
2022-10-07T07:24:21.513Z,23.80
2022-10-07T07:26:49.155Z,23.50
2022-10-07T07:29:17.095Z,23.40
2022-10-07T07:31:45.343Z,22.70
2022-10-07T07:34:13.929Z,23.60
2022-10-07T07:36:51.350Z,23.40
2022-10-07T07:39:22.678Z,20.50
2022-10-07T07:41:53.860Z,19.20
2022-10-07T07:44:25.041Z,18.50
2022-10-07T07:46:52.938Z,18.00
2022-10-07T07:49:24.723Z,19.60
2022-10-07T07:51:52.479Z,18.70
2022-10-07T07:54:25.425Z,20.30
2022-10-07T07:57:00.721Z,20.00
2022-10-07T07:59:31.185Z,19.40
2022-10-07T08:02:02.620Z,17.50
2022-10-07T08:04:33.330Z,18.30
2022-10-07T08:07:01.535Z,19.20
2022-10-07T08:09:29.413Z,21.60
2022-10-07T08:11:58.280Z,20.80
2022-10-07T08:14:25.998Z,20.70
2022-10-07T08:16:56.267Z,20.00
2022-10-07T08:19:26.772Z,19.70
2022-10-07T08:21:54.684Z,18.40
2022-10-07T08:24:27.875Z,17.50
2022-10-07T08:26:59.593Z,17.10
2022-10-07T08:29:27.462Z,15.80
2022-10-07T08:31:55.353Z,14.00
2022-10-07T08:34:24.657Z,14.00
2022-10-07T08:36:52.334Z,13.80
2022-10-07T08:39:20.912Z,13.90
2022-10-07T08:42:15.303Z,13.40
2022-10-07T08:44:48.900Z,12.00
2022-10-07T08:47:26.823Z,12.90
2022-10-07T08:50:08.859Z,11.20
2022-10-07T08:52:39.536Z,11.20
2022-10-07T08:55:34.890Z,10.80
2022-10-07T08:58:45.581Z,11.20
2022-10-07T09:01:45.959Z,11.20
2022-10-07T09:04:36.080Z,10.50
2022-10-07T09:07:36.450Z,10.20
2022-10-07T09:10:26.624Z,10.30
2022-10-07T09:13:14.080Z,9.60
2022-10-07T09:15:49.482Z,9.50
2022-10-07T09:18:35.114Z,9.20
2022-10-07T09:21:31.585Z,8.10
2022-10-07T09:24:32.560Z,8.00
2022-10-07T09:27:13.562Z,6.90
2022-10-07T09:29:46.308Z,7.10
2022-10-07T09:32:19.707Z,7.60
2022-10-07T09:34:48.625Z,7.40
2022-10-07T09:37:21.741Z,7.30
2022-10-07T09:39:53.000Z,9.00
2022-10-07T09:42:43.980Z,7.00
2022-10-07T09:45:19.737Z,6.60
2022-10-07T09:48:10.106Z,6.30
2022-10-07T09:50:43.083Z,7.00
2022-10-07T09:53:20.244Z,5.60
2022-10-07T09:55:50.856Z,5.80
2022-10-07T09:58:25.771Z,4.70
2022-10-07T10:00:59.308Z,4.60
2022-10-07T10:03:37.699Z,3.70
2022-10-07T10:06:09.874Z,3.30
2022-10-07T10:08:43.983Z,3.80
2022-10-07T10:11:20.580Z,3.70
2022-10-07T10:13:52.035Z,3.40
2022-10-07T10:16:28.957Z,3.50
2022-10-07T10:19:03.087Z,3.30
2022-10-07T10:21:41.180Z,3.90
2022-10-07T10:24:15.599Z,5.60
2022-10-07T10:27:16.653Z,3.60
2022-10-07T10:30:04.073Z,3.10
2022-10-07T10:32:57.609Z,3.50
2022-10-07T10:35:37.812Z,3.40
2022-10-07T10:38:25.356Z,3.60
2022-10-07T10:41:10.708Z,3.20
2022-10-07T10:44:31.245Z,3.50
2022-10-07T10:47:15.358Z,3.40
2022-10-07T10:50:07.471Z,3.50
2022-10-07T10:52:49.997Z,3.10
2022-10-07T10:55:41.152Z,2.70
2022-10-07T10:58:30.290Z,3.20
2022-10-07T11:01:25.196Z,3.40
2022-10-07T11:04:13.625Z,2.90
2022-10-07T11:06:48.490Z,2.90
2022-10-07T11:09:33.628Z,3.00
2022-10-07T11:12:06.392Z,4.00
2022-10-07T11:14:46.013Z,3.60
2022-10-07T11:17:16.170Z,3.30
2022-10-07T11:20:05.130Z,3.60
2022-10-07T11:22:48.197Z,3.40
2022-10-07T11:25:43.120Z,3.50
2022-10-07T11:28:22.658Z,3.10
2022-10-07T11:31:05.589Z,3.40
2022-10-07T11:34:01.097Z,3.40
2022-10-07T11:37:05.788Z,3.00
2022-10-07T11:39:39.969Z,2.90
2022-10-07T11:42:25.720Z,3.40
2022-10-07T11:45:16.486Z,3.40
2022-10-07T11:47:50.672Z,3.50
2022-10-07T11:50:31.338Z,3.20
2022-10-07T11:53:21.018Z,3.10
2022-10-07T11:55:59.214Z,3.40
2022-10-07T11:58:37.446Z,3.30
2022-10-07T12:01:30.687Z,2.90
2022-10-07T12:04:00.267Z,3.30
2022-10-07T12:06:28.847Z,3.30
2022-10-07T12:08:56.711Z,3.10
2022-10-07T12:11:32.018Z,3.40
2022-10-07T12:14:31.393Z,3.80
2022-10-07T12:17:20.969Z,3.60
2022-10-07T12:20:45.973Z,3.00
2022-10-07T12:23:21.315Z,3.40
2022-10-07T12:25:51.691Z,3.30
2022-10-07T12:28:42.036Z,3.20
2022-10-07T12:31:12.750Z,3.00
2022-10-07T12:33:46.637Z,2.80
2022-10-07T12:36:26.455Z,3.00
2022-10-07T12:38:56.367Z,3.10
2022-10-07T12:41:40.072Z,3.30
2022-10-07T12:44:36.719Z,2.90
2022-10-07T12:47:12.859Z,3.30
2022-10-07T12:49:56.019Z,3.00
2022-10-07T12:52:32.568Z,3.20
2022-10-07T12:55:34.679Z,3.50
2022-10-07T12:58:35.537Z,3.70
2022-10-07T13:01:11.988Z,3.40
2022-10-07T13:04:05.082Z,4.20
2022-10-07T13:06:55.999Z,3.90
2022-10-07T13:09:26.785Z,4.10
2022-10-07T13:12:19.901Z,3.70
2022-10-07T13:15:12.024Z,3.50
2022-10-07T13:18:14.932Z,3.50
2022-10-07T13:20:58.000Z,4.20
2022-10-07T13:23:27.696Z,3.80
2022-10-07T13:26:00.491Z,4.60
2022-10-07T13:28:52.612Z,4.60
2022-10-07T13:31:29.190Z,4.50
2022-10-07T13:34:17.980Z,3.20
2022-10-07T13:36:45.715Z,3.40
2022-10-07T13:39:23.297Z,3.50
2022-10-07T13:41:55.755Z,3.40
2022-10-07T13:44:30.023Z,3.60
2022-10-07T13:47:05.654Z,3.10
2022-10-07T13:49:46.364Z,3.70
2022-10-07T13:52:33.722Z,3.90
2022-10-07T13:55:01.676Z,3.90
2022-10-07T13:57:36.024Z,3.70
2022-10-07T14:00:07.021Z,3.80
2022-10-07T14:02:39.958Z,3.60
2022-10-07T14:05:43.501Z,3.60
2022-10-07T14:08:18.339Z,3.20
2022-10-07T14:11:05.150Z,4.00
2022-10-07T14:13:35.083Z,4.20
2022-10-07T14:16:04.601Z,3.50
2022-10-07T14:18:33.184Z,3.80
2022-10-07T14:21:16.688Z,4.00
2022-10-07T14:23:47.452Z,3.80
2022-10-07T14:26:17.760Z,4.30
2022-10-07T14:28:45.642Z,3.70
2022-10-07T14:31:41.213Z,3.80
2022-10-07T14:34:39.069Z,6.50
2022-10-07T14:37:19.611Z,4.60
2022-10-07T14:39:52.198Z,4.10
2022-10-07T14:42:26.193Z,4.90
2022-10-07T14:44:58.725Z,5.20
2022-10-07T14:47:31.326Z,5.90
2022-10-07T14:50:01.348Z,5.90
2022-10-07T14:52:52.100Z,5.80
2022-10-07T14:55:28.670Z,5.40
2022-10-07T14:57:57.926Z,6.20
2022-10-07T15:00:35.995Z,5.80
2022-10-07T15:03:07.386Z,5.60
2022-10-07T15:05:36.433Z,8.20
2022-10-07T15:08:05.743Z,5.50
2022-10-07T15:10:33.484Z,5.70
2022-10-07T15:13:04.085Z,5.40
2022-10-07T15:15:34.253Z,5.10
2022-10-07T15:18:01.938Z,5.40
2022-10-07T15:20:30.681Z,5.50
2022-10-07T15:22:58.340Z,28.80
2022-10-07T15:25:26.045Z,9.20
2022-10-07T15:27:53.731Z,20.00
2022-10-07T15:30:21.429Z,14.10
2022-10-07T15:32:50.577Z,6.30
2022-10-07T15:35:21.510Z,6.10
2022-10-07T15:37:50.167Z,6.70
2022-10-07T15:40:18.001Z,5.90
2022-10-07T15:42:45.856Z,6.40
2022-10-07T15:45:17.798Z,6.70
2022-10-07T15:47:45.507Z,8.30
2022-10-07T15:50:13.183Z,12.90
2022-10-07T15:52:42.334Z,6.90
2022-10-07T15:55:11.783Z,6.80
2022-10-07T15:57:41.158Z,6.60
2022-10-07T16:00:09.962Z,13.30
2022-10-07T16:02:37.819Z,10.00
2022-10-07T16:05:05.817Z,11.20
2022-10-07T16:07:33.808Z,12.00
2022-10-07T16:10:01.576Z,11.00
2022-10-07T16:12:31.078Z,10.40
2022-10-07T16:14:59.446Z,9.00
2022-10-07T16:17:27.983Z,9.20
2022-10-07T16:19:55.665Z,9.00
2022-10-07T16:22:24.863Z,9.30
2022-10-07T16:24:54.450Z,9.20
2022-10-07T16:27:42.553Z,9.20
2022-10-07T16:30:31.459Z,8.50
2022-10-07T16:33:00.645Z,7.50
2022-10-07T16:35:31.529Z,7.30
2022-10-07T16:38:00.985Z,6.90
2022-10-07T16:40:28.923Z,7.50
2022-10-07T16:43:00.811Z,7.00
2022-10-07T16:45:28.545Z,7.40
2022-10-07T16:47:58.019Z,7.10
2022-10-07T16:50:26.198Z,9.30
2022-10-07T16:52:54.045Z,22.00
2022-10-07T16:55:21.749Z,14.00
2022-10-07T16:57:50.917Z,10.70
2022-10-07T17:00:18.633Z,9.10
2022-10-07T17:02:46.567Z,7.40
2022-10-07T17:05:14.578Z,6.40
2022-10-07T17:07:42.531Z,6.70
2022-10-07T17:10:10.492Z,6.80
2022-10-07T17:12:38.139Z,7.50
2022-10-07T17:15:09.338Z,10.00
2022-10-07T17:17:38.620Z,9.50
2022-10-07T17:20:10.224Z,8.90
2022-10-07T17:22:40.273Z,9.40
2022-10-07T17:25:10.306Z,10.70
2022-10-07T17:27:38.192Z,8.90
2022-10-07T17:30:08.174Z,9.30
2022-10-07T17:32:36.098Z,9.90
2022-10-07T17:35:08.484Z,9.80
2022-10-07T17:37:36.438Z,9.90
2022-10-07T17:40:05.790Z,9.30
2022-10-07T17:42:33.708Z,9.70
2022-10-07T17:45:01.543Z,9.90
2022-10-07T17:47:29.642Z,10.10
2022-10-07T17:50:01.099Z,9.40
2022-10-07T17:52:30.452Z,10.20
2022-10-07T17:54:59.857Z,9.90
2022-10-07T17:57:27.880Z,8.80
2022-10-07T17:59:57.103Z,9.80
2022-10-07T18:02:25.047Z,9.10
2022-10-07T18:04:52.712Z,9.10
2022-10-07T18:07:21.928Z,9.60
2022-10-07T18:09:50.225Z,10.00
2022-10-07T18:12:38.775Z,10.50
2022-10-07T18:15:23.786Z,10.30
2022-10-07T18:17:57.380Z,9.70
2022-10-07T18:20:28.914Z,9.40
2022-10-07T18:22:59.732Z,9.00
2022-10-07T18:25:29.133Z,9.10
2022-10-07T18:27:57.008Z,9.70
2022-10-07T18:30:24.872Z,9.30
2022-10-07T18:32:54.194Z,9.00
2022-10-07T18:35:22.083Z,9.60
2022-10-07T18:37:52.405Z,9.50
2022-10-07T18:40:20.092Z,10.10
2022-10-07T18:42:48.051Z,10.60
2022-10-07T18:45:15.823Z,9.90
2022-10-07T18:47:43.603Z,9.40
2022-10-07T18:50:12.344Z,9.90
2022-10-07T18:52:40.322Z,9.00
2022-10-07T18:55:09.960Z,9.80
2022-10-07T18:57:37.617Z,9.70
2022-10-07T19:00:07.576Z,9.20
2022-10-07T19:02:35.285Z,9.30
2022-10-07T19:05:04.618Z,10.00
2022-10-07T19:07:33.334Z,10.50
2022-10-07T19:10:02.636Z,10.00
2022-10-07T19:12:49.306Z,12.70
2022-10-07T19:15:19.693Z,12.10
2022-10-07T19:17:47.934Z,11.70
2022-10-07T19:20:18.541Z,10.10
2022-10-07T19:22:46.308Z,11.40
2022-10-07T19:25:32.443Z,11.20
2022-10-07T19:28:00.398Z,9.80
2022-10-07T19:30:29.151Z,10.60
2022-10-07T19:32:57.529Z,10.50
2022-10-07T19:35:25.162Z,10.70
2022-10-07T19:37:54.698Z,10.50
2022-10-07T19:40:22.463Z,10.50
2022-10-07T19:42:50.191Z,11.30
2022-10-07T19:45:18.135Z,11.20
2022-10-07T19:47:46.013Z,10.20
2022-10-07T19:50:15.800Z,9.60
2022-10-07T19:52:45.914Z,11.10
2022-10-07T19:55:13.588Z,11.00
2022-10-07T19:57:41.248Z,11.20
2022-10-07T20:00:11.224Z,10.10
2022-10-07T20:02:39.174Z,10.30
2022-10-07T20:05:11.104Z,11.00
2022-10-07T20:07:40.221Z,11.00
2022-10-07T20:10:09.620Z,11.50
2022-10-07T20:12:40.721Z,11.30
2022-10-07T20:15:11.662Z,11.30
2022-10-07T20:17:41.947Z,12.10
2022-10-07T20:20:12.445Z,11.30
2022-10-07T20:22:44.715Z,11.30
2022-10-07T20:25:17.616Z,11.50
2022-10-07T20:27:45.629Z,11.30
2022-10-07T20:30:18.249Z,11.60
2022-10-07T20:32:47.972Z,11.90
2022-10-07T20:35:16.739Z,11.30
2022-10-07T20:37:44.393Z,11.90
2022-10-07T20:40:32.944Z,11.70
2022-10-07T20:43:03.831Z,11.20
2022-10-07T20:45:52.049Z,11.40
2022-10-07T20:48:20.605Z,11.80
2022-10-07T20:50:50.571Z,12.40
2022-10-07T20:53:18.214Z,11.90
2022-10-07T20:55:47.733Z,12.20
2022-10-07T20:58:16.972Z,12.20
2022-10-07T21:00:46.340Z,12.10
2022-10-07T21:03:14.247Z,12.80
2022-10-07T21:05:45.659Z,11.10
2022-10-07T21:08:16.574Z,12.60
2022-10-07T21:10:44.890Z,12.10
2022-10-07T21:13:17.033Z,12.40
2022-10-07T21:15:46.744Z,11.90
2022-10-07T21:18:17.246Z,12.20
2022-10-07T21:20:56.687Z,12.50
2022-10-07T21:23:31.145Z,12.40
2022-10-07T21:26:02.094Z,13.10
2022-10-07T21:28:36.793Z,11.80
2022-10-07T21:31:11.136Z,12.70
2022-10-07T21:33:42.693Z,11.40
2022-10-07T21:36:16.952Z,13.50
2022-10-07T21:38:54.091Z,14.00
2022-10-07T21:41:41.107Z,15.40
2022-10-07T21:44:16.445Z,13.90
2022-10-07T21:46:49.395Z,13.50
2022-10-07T21:49:20.719Z,13.50
2022-10-07T21:51:48.372Z,13.80
2022-10-07T21:54:19.410Z,13.60
2022-10-07T21:56:50.616Z,13.40
2022-10-07T21:59:21.572Z,13.90
2022-10-07T22:01:50.819Z,14.00
2022-10-07T22:04:21.352Z,13.50
2022-10-07T22:07:10.783Z,13.90
2022-10-07T22:09:42.420Z,15.50
2022-10-07T22:12:10.228Z,15.40
2022-10-07T22:14:41.586Z,15.50
2022-10-07T22:17:09.322Z,15.10
2022-10-07T22:19:41.046Z,16.30
2022-10-07T22:22:14.106Z,14.90
2022-10-07T22:24:46.996Z,16.60
2022-10-07T22:27:17.204Z,15.40
2022-10-07T22:29:44.871Z,13.90
2022-10-07T22:32:13.097Z,15.80
2022-10-07T22:34:59.337Z,15.50
2022-10-07T22:37:27.222Z,15.80
2022-10-07T22:39:55.597Z,16.40
2022-10-07T22:42:23.927Z,14.80
2022-10-07T22:44:52.522Z,15.00
2022-10-07T22:47:20.562Z,14.30
2022-10-07T22:49:48.697Z,15.30
2022-10-07T22:52:16.744Z,14.70
2022-10-07T22:54:45.258Z,13.80
2022-10-07T22:57:13.563Z,14.60
2022-10-07T22:59:41.417Z,14.60
2022-10-07T23:02:10.860Z,14.10
2022-10-07T23:04:38.628Z,14.60
2022-10-07T23:07:07.150Z,15.00
2022-10-07T23:09:35.040Z,15.20
2022-10-07T23:12:05.762Z,14.30
2022-10-07T23:14:34.155Z,13.60
2022-10-07T23:17:02.860Z,13.80
2022-10-07T23:19:31.635Z,13.00
2022-10-07T23:22:00.816Z,13.80
2022-10-07T23:24:28.936Z,12.70
2022-10-07T23:26:57.122Z,12.20
2022-10-07T23:29:26.950Z,13.90
2022-10-07T23:31:55.255Z,13.10
2022-10-07T23:34:23.560Z,13.00
2022-10-07T23:36:54.591Z,13.30
2022-10-07T23:39:23.808Z,13.80
2022-10-07T23:41:51.511Z,12.70
2022-10-07T23:44:20.991Z,12.00
2022-10-07T23:46:51.027Z,11.50
2022-10-07T23:49:19.962Z,12.60
2022-10-07T23:51:49.033Z,12.90
2022-10-07T23:54:17.255Z,12.60
2022-10-07T23:56:45.846Z,13.70
2022-10-07T23:59:14.485Z,12.20
